sensor_id;sensor_type;location;lat;lon;timestamp;P1;durP1;ratioP1;P2;durP2;ratioP2
52104;SDS011;38103;42.776;23.112;2022-07-10T00:01:23;30.67;;;19.65;;
52104;SDS011;38103;42.776;23.112;2022-07-10T00:03:48;30.90;;;19.20;;
52104;SDS011;38103;42.776;23.112;2022-07-10T00:06:15;29.58;;;19.15;;
52104;SDS011;38103;42.776;23.112;2022-07-10T00:08:43;29.27;;;18.88;;
52104;SDS011;38103;42.776;23.112;2022-07-10T00:11:08;30.95;;;18.98;;
52104;SDS011;38103;42.776;23.112;2022-07-10T00:13:34;30.70;;;19.02;;
52104;SDS011;38103;42.776;23.112;2022-07-10T00:16:00;28.30;;;18.38;;
52104;SDS011;38103;42.776;23.112;2022-07-10T00:18:27;27.40;;;18.63;;
52104;SDS011;38103;42.776;23.112;2022-07-10T00:20:55;27.15;;;18.73;;
52104;SDS011;38103;42.776;23.112;2022-07-10T00:23:21;26.38;;;18.00;;
52104;SDS011;38103;42.776;23.112;2022-07-10T00:25:46;25.92;;;17.30;;
52104;SDS011;38103;42.776;23.112;2022-07-10T00:28:12;29.30;;;18.38;;
52104;SDS011;38103;42.776;23.112;2022-07-10T00:30:37;28.30;;;18.08;;
52104;SDS011;38103;42.776;23.112;2022-07-10T00:33:03;26.73;;;18.00;;
52104;SDS011;38103;42.776;23.112;2022-07-10T00:35:29;27.27;;;18.33;;
52104;SDS011;38103;42.776;23.112;2022-07-10T00:37:55;27.83;;;18.30;;
52104;SDS011;38103;42.776;23.112;2022-07-10T00:40:20;27.48;;;18.83;;
52104;SDS011;38103;42.776;23.112;2022-07-10T00:42:46;25.58;;;18.02;;
52104;SDS011;38103;42.776;23.112;2022-07-10T00:45:11;29.73;;;18.50;;
52104;SDS011;38103;42.776;23.112;2022-07-10T00:47:37;27.60;;;18.98;;
52104;SDS011;38103;42.776;23.112;2022-07-10T00:50:03;25.60;;;18.00;;
52104;SDS011;38103;42.776;23.112;2022-07-10T00:52:29;30.08;;;18.25;;
52104;SDS011;38103;42.776;23.112;2022-07-10T00:54:54;28.83;;;17.27;;
52104;SDS011;38103;42.776;23.112;2022-07-10T00:57:20;28.05;;;18.02;;
52104;SDS011;38103;42.776;23.112;2022-07-10T00:59:47;26.67;;;17.95;;
52104;SDS011;38103;42.776;23.112;2022-07-10T01:02:14;29.38;;;17.02;;
52104;SDS011;38103;42.776;23.112;2022-07-10T01:04:41;25.02;;;16.92;;
52104;SDS011;38103;42.776;23.112;2022-07-10T01:07:06;26.17;;;16.65;;
52104;SDS011;38103;42.776;23.112;2022-07-10T01:09:32;26.13;;;17.52;;
52104;SDS011;38103;42.776;23.112;2022-07-10T01:12:01;26.00;;;17.10;;
52104;SDS011;38103;42.776;23.112;2022-07-10T01:14:28;24.95;;;16.55;;
52104;SDS011;38103;42.776;23.112;2022-07-10T01:16:55;26.27;;;17.30;;
52104;SDS011;38103;42.776;23.112;2022-07-10T01:19:22;24.45;;;16.88;;
52104;SDS011;38103;42.776;23.112;2022-07-10T01:21:48;27.15;;;17.73;;
52104;SDS011;38103;42.776;23.112;2022-07-10T01:24:13;26.42;;;17.15;;
52104;SDS011;38103;42.776;23.112;2022-07-10T01:26:38;26.00;;;17.10;;
52104;SDS011;38103;42.776;23.112;2022-07-10T01:29:08;26.92;;;16.77;;
52104;SDS011;38103;42.776;23.112;2022-07-10T01:31:34;28.38;;;17.85;;
52104;SDS011;38103;42.776;23.112;2022-07-10T01:34:01;26.92;;;17.38;;
52104;SDS011;38103;42.776;23.112;2022-07-10T01:36:27;28.95;;;17.70;;
52104;SDS011;38103;42.776;23.112;2022-07-10T01:38:57;25.67;;;17.23;;
52104;SDS011;38103;42.776;23.112;2022-07-10T01:41:23;27.17;;;16.83;;
52104;SDS011;38103;42.776;23.112;2022-07-10T01:43:49;31.45;;;17.38;;
52104;SDS011;38103;42.776;23.112;2022-07-10T01:46:15;28.40;;;17.77;;
52104;SDS011;38103;42.776;23.112;2022-07-10T01:48:41;26.35;;;18.20;;
52104;SDS011;38103;42.776;23.112;2022-07-10T01:51:07;29.17;;;18.00;;
52104;SDS011;38103;42.776;23.112;2022-07-10T01:53:34;28.20;;;17.75;;
52104;SDS011;38103;42.776;23.112;2022-07-10T01:56:02;26.95;;;16.98;;
52104;SDS011;38103;42.776;23.112;2022-07-10T01:58:30;29.17;;;18.63;;
52104;SDS011;38103;42.776;23.112;2022-07-10T02:00:55;27.90;;;18.08;;
52104;SDS011;38103;42.776;23.112;2022-07-10T02:03:21;27.65;;;18.02;;
52104;SDS011;38103;42.776;23.112;2022-07-10T02:08:30;27.17;;;17.80;;
52104;SDS011;38103;42.776;23.112;2022-07-10T02:10:55;26.63;;;17.50;;
52104;SDS011;38103;42.776;23.112;2022-07-10T02:13:21;28.33;;;17.50;;
52104;SDS011;38103;42.776;23.112;2022-07-10T02:15:46;25.35;;;17.98;;
52104;SDS011;38103;42.776;23.112;2022-07-10T02:18:12;30.60;;;17.73;;
52104;SDS011;38103;42.776;23.112;2022-07-10T02:20:38;28.38;;;18.42;;
52104;SDS011;38103;42.776;23.112;2022-07-10T02:23:03;26.15;;;17.27;;
52104;SDS011;38103;42.776;23.112;2022-07-10T02:25:29;27.42;;;18.38;;
52104;SDS011;38103;42.776;23.112;2022-07-10T02:27:54;31.55;;;18.67;;
52104;SDS011;38103;42.776;23.112;2022-07-10T02:30:19;27.02;;;18.35;;
52104;SDS011;38103;42.776;23.112;2022-07-10T02:32:45;25.65;;;17.70;;
52104;SDS011;38103;42.776;23.112;2022-07-10T02:35:10;27.13;;;18.33;;
52104;SDS011;38103;42.776;23.112;2022-07-10T02:37:36;27.42;;;17.83;;
52104;SDS011;38103;42.776;23.112;2022-07-10T02:40:01;27.35;;;17.92;;
52104;SDS011;38103;42.776;23.112;2022-07-10T02:42:27;27.42;;;17.90;;
52104;SDS011;38103;42.776;23.112;2022-07-10T02:44:52;31.95;;;17.80;;
52104;SDS011;38103;42.776;23.112;2022-07-10T02:47:21;26.90;;;18.15;;
52104;SDS011;38103;42.776;23.112;2022-07-10T02:49:46;27.35;;;17.30;;
52104;SDS011;38103;42.776;23.112;2022-07-10T02:52:12;29.35;;;17.30;;
52104;SDS011;38103;42.776;23.112;2022-07-10T02:54:37;28.20;;;18.40;;
52104;SDS011;38103;42.776;23.112;2022-07-10T02:57:03;25.20;;;17.55;;
52104;SDS011;38103;42.776;23.112;2022-07-10T02:59:29;26.02;;;17.48;;
52104;SDS011;38103;42.776;23.112;2022-07-10T03:01:54;25.20;;;17.48;;
52104;SDS011;38103;42.776;23.112;2022-07-10T03:04:20;28.65;;;17.60;;
52104;SDS011;38103;42.776;23.112;2022-07-10T03:06:45;26.17;;;17.15;;
52104;SDS011;38103;42.776;23.112;2022-07-10T03:09:10;25.73;;;17.27;;
52104;SDS011;38103;42.776;23.112;2022-07-10T03:11:36;25.30;;;16.58;;
52104;SDS011;38103;42.776;23.112;2022-07-10T03:14:01;26.65;;;16.73;;
52104;SDS011;38103;42.776;23.112;2022-07-10T03:16:26;26.95;;;17.00;;
52104;SDS011;38103;42.776;23.112;2022-07-10T03:18:52;25.42;;;17.90;;
52104;SDS011;38103;42.776;23.112;2022-07-10T03:21:17;29.67;;;17.77;;
52104;SDS011;38103;42.776;23.112;2022-07-10T03:23:42;25.15;;;17.70;;
52104;SDS011;38103;42.776;23.112;2022-07-10T03:26:08;25.58;;;17.50;;
52104;SDS011;38103;42.776;23.112;2022-07-10T03:28:33;27.02;;;17.02;;
52104;SDS011;38103;42.776;23.112;2022-07-10T03:30:59;23.80;;;16.80;;
52104;SDS011;38103;42.776;23.112;2022-07-10T03:33:24;26.70;;;17.10;;
52104;SDS011;38103;42.776;23.112;2022-07-10T03:35:49;24.45;;;16.25;;
52104;SDS011;38103;42.776;23.112;2022-07-10T03:38:15;25.08;;;16.90;;
52104;SDS011;38103;42.776;23.112;2022-07-10T03:40:40;25.55;;;16.67;;
52104;SDS011;38103;42.776;23.112;2022-07-10T03:43:06;26.40;;;16.63;;
52104;SDS011;38103;42.776;23.112;2022-07-10T03:45:31;26.13;;;17.23;;
52104;SDS011;38103;42.776;23.112;2022-07-10T03:47:57;24.70;;;15.25;;
52104;SDS011;38103;42.776;23.112;2022-07-10T03:50:22;22.67;;;15.68;;
52104;SDS011;38103;42.776;23.112;2022-07-10T03:52:48;21.58;;;15.18;;
52104;SDS011;38103;42.776;23.112;2022-07-10T03:55:13;26.20;;;14.55;;
52104;SDS011;38103;42.776;23.112;2022-07-10T03:57:39;22.75;;;15.20;;
52104;SDS011;38103;42.776;23.112;2022-07-10T04:00:20;23.52;;;14.38;;
52104;SDS011;38103;42.776;23.112;2022-07-10T04:02:58;20.05;;;13.43;;
52104;SDS011;38103;42.776;23.112;2022-07-10T04:05:28;23.80;;;13.55;;
52104;SDS011;38103;42.776;23.112;2022-07-10T04:07:54;19.63;;;12.48;;
52104;SDS011;38103;42.776;23.112;2022-07-10T04:10:21;18.00;;;12.13;;
52104;SDS011;38103;42.776;23.112;2022-07-10T04:12:47;19.88;;;12.15;;
52104;SDS011;38103;42.776;23.112;2022-07-10T04:15:13;20.58;;;12.57;;
52104;SDS011;38103;42.776;23.112;2022-07-10T04:17:38;22.45;;;12.73;;
52104;SDS011;38103;42.776;23.112;2022-07-10T04:20:04;17.48;;;11.95;;
52104;SDS011;38103;42.776;23.112;2022-07-10T04:22:30;19.02;;;12.82;;
52104;SDS011;38103;42.776;23.112;2022-07-10T04:24:55;18.83;;;12.40;;
52104;SDS011;38103;42.776;23.112;2022-07-10T04:27:20;17.98;;;11.65;;
52104;SDS011;38103;42.776;23.112;2022-07-10T04:29:46;19.80;;;12.43;;
52104;SDS011;38103;42.776;23.112;2022-07-10T04:32:12;18.63;;;11.77;;
52104;SDS011;38103;42.776;23.112;2022-07-10T04:34:39;19.65;;;10.90;;
52104;SDS011;38103;42.776;23.112;2022-07-10T04:37:04;17.17;;;11.35;;
52104;SDS011;38103;42.776;23.112;2022-07-10T04:39:31;16.70;;;11.02;;
52104;SDS011;38103;42.776;23.112;2022-07-10T04:41:57;19.23;;;10.60;;
52104;SDS011;38103;42.776;23.112;2022-07-10T04:44:22;17.05;;;10.40;;
52104;SDS011;38103;42.776;23.112;2022-07-10T04:57:55;15.45;;;9.80;;
52104;SDS011;38103;42.776;23.112;2022-07-10T05:00:20;17.10;;;9.98;;
52104;SDS011;38103;42.776;23.112;2022-07-10T05:02:46;15.77;;;10.02;;
52104;SDS011;38103;42.776;23.112;2022-07-10T05:05:11;17.48;;;11.05;;
52104;SDS011;38103;42.776;23.112;2022-07-10T05:07:36;15.82;;;9.75;;
52104;SDS011;38103;42.776;23.112;2022-07-10T05:10:02;14.85;;;9.90;;
52104;SDS011;38103;42.776;23.112;2022-07-10T05:12:28;19.42;;;10.05;;
52104;SDS011;38103;42.776;23.112;2022-07-10T05:14:53;16.35;;;9.80;;
52104;SDS011;38103;42.776;23.112;2022-07-10T05:17:18;15.70;;;10.20;;
52104;SDS011;38103;42.776;23.112;2022-07-10T05:19:44;18.63;;;10.38;;
52104;SDS011;38103;42.776;23.112;2022-07-10T05:22:09;19.55;;;10.20;;
52104;SDS011;38103;42.776;23.112;2022-07-10T05:24:35;16.45;;;10.98;;
52104;SDS011;38103;42.776;23.112;2022-07-10T05:27:01;18.15;;;10.50;;
52104;SDS011;38103;42.776;23.112;2022-07-10T05:29:27;17.58;;;10.63;;
52104;SDS011;38103;42.776;23.112;2022-07-10T05:31:52;16.48;;;10.15;;
52104;SDS011;38103;42.776;23.112;2022-07-10T05:34:18;16.75;;;10.50;;
52104;SDS011;38103;42.776;23.112;2022-07-10T05:36:43;14.98;;;9.27;;
52104;SDS011;38103;42.776;23.112;2022-07-10T05:39:09;16.05;;;9.27;;
52104;SDS011;38103;42.776;23.112;2022-07-10T05:41:34;18.17;;;9.65;;
52104;SDS011;38103;42.776;23.112;2022-07-10T05:44:01;16.77;;;9.32;;
52104;SDS011;38103;42.776;23.112;2022-07-10T05:46:27;15.43;;;9.30;;
52104;SDS011;38103;42.776;23.112;2022-07-10T05:48:52;16.40;;;8.68;;
52104;SDS011;38103;42.776;23.112;2022-07-10T05:51:18;14.20;;;8.95;;
52104;SDS011;38103;42.776;23.112;2022-07-10T05:53:43;17.25;;;8.88;;
52104;SDS011;38103;42.776;23.112;2022-07-10T05:56:09;14.70;;;8.63;;
52104;SDS011;38103;42.776;23.112;2022-07-10T05:58:34;14.23;;;8.50;;
52104;SDS011;38103;42.776;23.112;2022-07-10T06:00:59;14.68;;;8.45;;
52104;SDS011;38103;42.776;23.112;2022-07-10T06:03:25;15.00;;;8.07;;
52104;SDS011;38103;42.776;23.112;2022-07-10T06:05:51;13.43;;;7.38;;
52104;SDS011;38103;42.776;23.112;2022-07-10T06:08:16;16.23;;;7.30;;
52104;SDS011;38103;42.776;23.112;2022-07-10T06:10:41;13.25;;;7.13;;
52104;SDS011;38103;42.776;23.112;2022-07-10T06:13:09;13.23;;;6.90;;
52104;SDS011;38103;42.776;23.112;2022-07-10T06:15:35;13.98;;;7.15;;
52104;SDS011;38103;42.776;23.112;2022-07-10T06:18:00;14.68;;;7.30;;
52104;SDS011;38103;42.776;23.112;2022-07-10T06:20:25;17.42;;;7.00;;
52104;SDS011;38103;42.776;23.112;2022-07-10T06:22:51;13.95;;;6.90;;
52104;SDS011;38103;42.776;23.112;2022-07-10T06:25:16;11.27;;;6.45;;
52104;SDS011;38103;42.776;23.112;2022-07-10T06:27:42;12.95;;;6.57;;
52104;SDS011;38103;42.776;23.112;2022-07-10T06:30:07;11.73;;;5.90;;
52104;SDS011;38103;42.776;23.112;2022-07-10T06:32:33;10.95;;;5.85;;
52104;SDS011;38103;42.776;23.112;2022-07-10T06:34:58;12.70;;;5.60;;
52104;SDS011;38103;42.776;23.112;2022-07-10T06:37:24;11.68;;;5.97;;
52104;SDS011;38103;42.776;23.112;2022-07-10T06:39:50;10.88;;;5.93;;
52104;SDS011;38103;42.776;23.112;2022-07-10T06:42:16;12.82;;;5.80;;
52104;SDS011;38103;42.776;23.112;2022-07-10T06:44:42;11.70;;;5.25;;
52104;SDS011;38103;42.776;23.112;2022-07-10T06:47:08;11.23;;;5.38;;
52104;SDS011;38103;42.776;23.112;2022-07-10T06:49:53;12.25;;;5.20;;
52104;SDS011;38103;42.776;23.112;2022-07-10T06:52:19;12.52;;;5.60;;
52104;SDS011;38103;42.776;23.112;2022-07-10T06:54:45;14.73;;;6.10;;
52104;SDS011;38103;42.776;23.112;2022-07-10T06:57:11;14.38;;;5.55;;
52104;SDS011;38103;42.776;23.112;2022-07-10T06:59:36;11.43;;;5.60;;
52104;SDS011;38103;42.776;23.112;2022-07-10T07:02:02;12.32;;;5.32;;
52104;SDS011;38103;42.776;23.112;2022-07-10T07:04:27;10.98;;;5.85;;
52104;SDS011;38103;42.776;23.112;2022-07-10T07:06:53;10.32;;;5.18;;
52104;SDS011;38103;42.776;23.112;2022-07-10T07:09:18;15.15;;;5.78;;
52104;SDS011;38103;42.776;23.112;2022-07-10T07:11:43;12.15;;;5.05;;
52104;SDS011;38103;42.776;23.112;2022-07-10T07:14:09;10.35;;;5.18;;
52104;SDS011;38103;42.776;23.112;2022-07-10T07:16:34;15.52;;;5.28;;
52104;SDS011;38103;42.776;23.112;2022-07-10T07:19:23;11.35;;;4.40;;
52104;SDS011;38103;42.776;23.112;2022-07-10T07:21:56;13.35;;;5.20;;
52104;SDS011;38103;42.776;23.112;2022-07-10T07:24:43;10.02;;;4.90;;
52104;SDS011;38103;42.776;23.112;2022-07-10T07:27:09;11.07;;;4.82;;
52104;SDS011;38103;42.776;23.112;2022-07-10T07:29:35;10.15;;;4.50;;
52104;SDS011;38103;42.776;23.112;2022-07-10T07:32:01;11.20;;;4.75;;
52104;SDS011;38103;42.776;23.112;2022-07-10T07:34:26;10.15;;;4.78;;
52104;SDS011;38103;42.776;23.112;2022-07-10T07:36:52;9.82;;;4.60;;
52104;SDS011;38103;42.776;23.112;2022-07-10T07:39:17;11.90;;;4.30;;
52104;SDS011;38103;42.776;23.112;2022-07-10T07:41:42;10.63;;;4.50;;
52104;SDS011;38103;42.776;23.112;2022-07-10T07:44:08;12.40;;;4.10;;
52104;SDS011;38103;42.776;23.112;2022-07-10T07:46:33;11.70;;;4.40;;
52104;SDS011;38103;42.776;23.112;2022-07-10T07:48:59;8.75;;;4.10;;
52104;SDS011;38103;42.776;23.112;2022-07-10T07:51:25;9.63;;;4.18;;
52104;SDS011;38103;42.776;23.112;2022-07-10T07:53:50;10.35;;;4.47;;
52104;SDS011;38103;42.776;23.112;2022-07-10T07:56:16;10.13;;;4.30;;
52104;SDS011;38103;42.776;23.112;2022-07-10T07:58:41;11.23;;;4.10;;
52104;SDS011;38103;42.776;23.112;2022-07-10T08:01:07;11.07;;;4.05;;
52104;SDS011;38103;42.776;23.112;2022-07-10T08:03:32;10.63;;;3.75;;
52104;SDS011;38103;42.776;23.112;2022-07-10T08:05:58;11.98;;;4.07;;
52104;SDS011;38103;42.776;23.112;2022-07-10T08:08:23;10.40;;;4.00;;
52104;SDS011;38103;42.776;23.112;2022-07-10T08:10:48;10.15;;;4.03;;
52104;SDS011;38103;42.776;23.112;2022-07-10T08:13:14;10.38;;;3.92;;
52104;SDS011;38103;42.776;23.112;2022-07-10T08:15:39;12.00;;;4.20;;
52104;SDS011;38103;42.776;23.112;2022-07-10T08:18:05;10.82;;;3.80;;
52104;SDS011;38103;42.776;23.112;2022-07-10T08:20:32;12.20;;;3.90;;
52104;SDS011;38103;42.776;23.112;2022-07-10T08:22:57;11.07;;;3.95;;
52104;SDS011;38103;42.776;23.112;2022-07-10T08:25:23;11.15;;;3.70;;
52104;SDS011;38103;42.776;23.112;2022-07-10T08:27:49;8.52;;;3.30;;
52104;SDS011;38103;42.776;23.112;2022-07-10T08:30:15;8.45;;;3.13;;
52104;SDS011;38103;42.776;23.112;2022-07-10T08:32:40;10.43;;;3.63;;
52104;SDS011;38103;42.776;23.112;2022-07-10T08:35:06;8.82;;;3.47;;
52104;SDS011;38103;42.776;23.112;2022-07-10T08:37:39;10.30;;;3.40;;
52104;SDS011;38103;42.776;23.112;2022-07-10T08:40:08;12.70;;;3.55;;
52104;SDS011;38103;42.776;23.112;2022-07-10T08:42:35;8.68;;;3.50;;
52104;SDS011;38103;42.776;23.112;2022-07-10T08:45:00;9.52;;;3.50;;
52104;SDS011;38103;42.776;23.112;2022-07-10T08:47:26;8.60;;;3.38;;
52104;SDS011;38103;42.776;23.112;2022-07-10T08:49:56;11.20;;;3.42;;
52104;SDS011;38103;42.776;23.112;2022-07-10T08:55:07;9.40;;;3.10;;
52104;SDS011;38103;42.776;23.112;2022-07-10T08:57:33;11.57;;;3.47;;
52104;SDS011;38103;42.776;23.112;2022-07-10T09:00:00;10.38;;;3.40;;
52104;SDS011;38103;42.776;23.112;2022-07-10T09:02:25;8.85;;;3.38;;
52104;SDS011;38103;42.776;23.112;2022-07-10T09:04:50;8.25;;;3.13;;
52104;SDS011;38103;42.776;23.112;2022-07-10T09:07:16;12.23;;;3.20;;
52104;SDS011;38103;42.776;23.112;2022-07-10T09:09:55;8.75;;;3.20;;
52104;SDS011;38103;42.776;23.112;2022-07-10T09:12:21;8.30;;;3.25;;
52104;SDS011;38103;42.776;23.112;2022-07-10T09:14:48;10.07;;;3.65;;
52104;SDS011;38103;42.776;23.112;2022-07-10T09:17:14;8.65;;;3.13;;
52104;SDS011;38103;42.776;23.112;2022-07-10T09:19:39;8.10;;;3.00;;
52104;SDS011;38103;42.776;23.112;2022-07-10T09:22:06;8.25;;;3.10;;
52104;SDS011;38103;42.776;23.112;2022-07-10T09:27:08;10.43;;;3.50;;
52104;SDS011;38103;42.776;23.112;2022-07-10T09:29:45;10.45;;;3.25;;
52104;SDS011;38103;42.776;23.112;2022-07-10T09:32:12;9.98;;;3.38;;
52104;SDS011;38103;42.776;23.112;2022-07-10T09:34:41;10.52;;;3.35;;
52104;SDS011;38103;42.776;23.112;2022-07-10T09:37:17;10.43;;;3.22;;
52104;SDS011;38103;42.776;23.112;2022-07-10T09:40:03;8.93;;;3.13;;
52104;SDS011;38103;42.776;23.112;2022-07-10T09:47:40;7.53;;;2.97;;
52104;SDS011;38103;42.776;23.112;2022-07-10T09:52:54;7.30;;;2.72;;
52104;SDS011;38103;42.776;23.112;2022-07-10T09:55:21;8.77;;;3.00;;
52104;SDS011;38103;42.776;23.112;2022-07-10T09:57:57;10.55;;;3.10;;
52104;SDS011;38103;42.776;23.112;2022-07-10T10:00:24;11.95;;;3.28;;
52104;SDS011;38103;42.776;23.112;2022-07-10T10:02:55;12.57;;;3.17;;
52104;SDS011;38103;42.776;23.112;2022-07-10T10:05:24;8.48;;;3.20;;
52104;SDS011;38103;42.776;23.112;2022-07-10T10:07:57;8.27;;;3.30;;
52104;SDS011;38103;42.776;23.112;2022-07-10T10:10:26;10.20;;;3.50;;
52104;SDS011;38103;42.776;23.112;2022-07-10T10:12:54;10.40;;;3.60;;
52104;SDS011;38103;42.776;23.112;2022-07-10T10:15:24;10.60;;;4.00;;
52104;SDS011;38103;42.776;23.112;2022-07-10T10:17:51;10.60;;;3.65;;
52104;SDS011;38103;42.776;23.112;2022-07-10T10:20:18;10.65;;;3.63;;
52104;SDS011;38103;42.776;23.112;2022-07-10T10:23:07;10.30;;;2.92;;
52104;SDS011;38103;42.776;23.112;2022-07-10T10:25:36;10.00;;;3.35;;
52104;SDS011;38103;42.776;23.112;2022-07-10T10:28:04;9.23;;;3.10;;
52104;SDS011;38103;42.776;23.112;2022-07-10T10:30:31;8.98;;;2.97;;
52104;SDS011;38103;42.776;23.112;2022-07-10T10:32:58;9.32;;;2.97;;
52104;SDS011;38103;42.776;23.112;2022-07-10T10:38:11;9.13;;;3.25;;
52104;SDS011;38103;42.776;23.112;2022-07-10T10:40:37;11.00;;;3.40;;
52104;SDS011;38103;42.776;23.112;2022-07-10T10:43:22;11.95;;;3.20;;
52104;SDS011;38103;42.776;23.112;2022-07-10T10:45:49;8.88;;;3.25;;
52104;SDS011;38103;42.776;23.112;2022-07-10T10:48:16;9.45;;;3.13;;
52104;SDS011;38103;42.776;23.112;2022-07-10T10:58:24;10.80;;;3.20;;
52104;SDS011;38103;42.776;23.112;2022-07-10T11:00:50;9.98;;;3.15;;
52104;SDS011;38103;42.776;23.112;2022-07-10T11:03:17;9.15;;;3.00;;
52104;SDS011;38103;42.776;23.112;2022-07-10T11:05:47;9.52;;;2.83;;
52104;SDS011;38103;42.776;23.112;2022-07-10T11:08:14;7.75;;;2.78;;
52104;SDS011;38103;42.776;23.112;2022-07-10T11:13:58;9.48;;;3.00;;
52104;SDS011;38103;42.776;23.112;2022-07-10T11:16:24;8.25;;;3.00;;
52104;SDS011;38103;42.776;23.112;2022-07-10T11:18:52;7.78;;;2.97;;
52104;SDS011;38103;42.776;23.112;2022-07-10T11:21:22;8.77;;;3.22;;
52104;SDS011;38103;42.776;23.112;2022-07-10T11:26:29;9.80;;;2.95;;
52104;SDS011;38103;42.776;23.112;2022-07-10T11:29:03;9.60;;;3.08;;
52104;SDS011;38103;42.776;23.112;2022-07-10T11:31:32;7.80;;;2.80;;
52104;SDS011;38103;42.776;23.112;2022-07-10T11:34:09;8.32;;;2.80;;
52104;SDS011;38103;42.776;23.112;2022-07-10T11:36:38;8.23;;;2.85;;
52104;SDS011;38103;42.776;23.112;2022-07-10T11:39:05;7.43;;;2.63;;
52104;SDS011;38103;42.776;23.112;2022-07-10T11:41:31;8.63;;;2.80;;
52104;SDS011;38103;42.776;23.112;2022-07-10T11:43:58;11.48;;;2.67;;
52104;SDS011;38103;42.776;23.112;2022-07-10T11:46:26;7.53;;;2.70;;
52104;SDS011;38103;42.776;23.112;2022-07-10T11:48:53;7.95;;;3.03;;
52104;SDS011;38103;42.776;23.112;2022-07-10T11:53:53;7.60;;;2.78;;
52104;SDS011;38103;42.776;23.112;2022-07-10T11:56:25;9.15;;;2.78;;
52104;SDS011;38103;42.776;23.112;2022-07-10T11:58:56;7.95;;;2.75;;
52104;SDS011;38103;42.776;23.112;2022-07-10T12:01:32;7.82;;;2.88;;
52104;SDS011;38103;42.776;23.112;2022-07-10T12:06:26;6.80;;;2.60;;
52104;SDS011;38103;42.776;23.112;2022-07-10T12:08:52;7.85;;;2.63;;
52104;SDS011;38103;42.776;23.112;2022-07-10T12:11:18;6.35;;;2.35;;
52104;SDS011;38103;42.776;23.112;2022-07-10T12:13:46;9.35;;;2.55;;
52104;SDS011;38103;42.776;23.112;2022-07-10T12:16:13;7.78;;;2.50;;
52104;SDS011;38103;42.776;23.112;2022-07-10T12:18:39;6.95;;;2.40;;
52104;SDS011;38103;42.776;23.112;2022-07-10T12:21:10;8.65;;;2.85;;
52104;SDS011;38103;42.776;23.112;2022-07-10T12:23:37;6.32;;;2.38;;
52104;SDS011;38103;42.776;23.112;2022-07-10T12:26:07;6.30;;;2.13;;
52104;SDS011;38103;42.776;23.112;2022-07-10T12:28:56;6.95;;;2.30;;
52104;SDS011;38103;42.776;23.112;2022-07-10T12:31:21;8.32;;;2.08;;
52104;SDS011;38103;42.776;23.112;2022-07-10T12:33:51;5.63;;;2.10;;
52104;SDS011;38103;42.776;23.112;2022-07-10T12:36:23;7.18;;;2.30;;
52104;SDS011;38103;42.776;23.112;2022-07-10T12:38:53;7.10;;;2.30;;
52104;SDS011;38103;42.776;23.112;2022-07-10T12:41:20;7.07;;;2.10;;
52104;SDS011;38103;42.776;23.112;2022-07-10T12:43:49;7.03;;;2.30;;
52104;SDS011;38103;42.776;23.112;2022-07-10T12:46:18;10.05;;;3.05;;
52104;SDS011;38103;42.776;23.112;2022-07-10T12:51:44;5.63;;;1.95;;
52104;SDS011;38103;42.776;23.112;2022-07-10T12:57:05;6.43;;;2.30;;
52104;SDS011;38103;42.776;23.112;2022-07-10T12:59:35;10.52;;;2.20;;
52104;SDS011;38103;42.776;23.112;2022-07-10T13:02:17;5.63;;;2.00;;
52104;SDS011;38103;42.776;23.112;2022-07-10T13:07:20;6.93;;;2.20;;
52104;SDS011;38103;42.776;23.112;2022-07-10T13:09:53;5.35;;;2.10;;
52104;SDS011;38103;42.776;23.112;2022-07-10T13:12:18;5.78;;;2.00;;
52104;SDS011;38103;42.776;23.112;2022-07-10T13:14:44;8.18;;;2.50;;
52104;SDS011;38103;42.776;23.112;2022-07-10T13:17:09;6.45;;;2.40;;
52104;SDS011;38103;42.776;23.112;2022-07-10T13:19:34;7.72;;;2.28;;
52104;SDS011;38103;42.776;23.112;2022-07-10T13:22:00;5.22;;;2.03;;
52104;SDS011;38103;42.776;23.112;2022-07-10T13:24:25;5.95;;;2.00;;
52104;SDS011;38103;42.776;23.112;2022-07-10T13:26:53;5.13;;;2.00;;
52104;SDS011;38103;42.776;23.112;2022-07-10T13:29:20;6.53;;;2.10;;
52104;SDS011;38103;42.776;23.112;2022-07-10T13:31:46;6.13;;;2.10;;
52104;SDS011;38103;42.776;23.112;2022-07-10T13:34:12;7.15;;;2.30;;
52104;SDS011;38103;42.776;23.112;2022-07-10T13:36:37;6.40;;;2.28;;
52104;SDS011;38103;42.776;23.112;2022-07-10T13:39:03;6.20;;;2.10;;
52104;SDS011;38103;42.776;23.112;2022-07-10T13:41:29;7.45;;;2.28;;
52104;SDS011;38103;42.776;23.112;2022-07-10T13:43:54;5.95;;;2.00;;
52104;SDS011;38103;42.776;23.112;2022-07-10T13:46:19;6.13;;;2.15;;
52104;SDS011;38103;42.776;23.112;2022-07-10T13:48:45;5.32;;;2.00;;
52104;SDS011;38103;42.776;23.112;2022-07-10T13:51:10;6.28;;;2.10;;
52104;SDS011;38103;42.776;23.112;2022-07-10T13:53:35;6.25;;;2.20;;
52104;SDS011;38103;42.776;23.112;2022-07-10T13:56:03;8.20;;;2.30;;
52104;SDS011;38103;42.776;23.112;2022-07-10T13:58:29;10.77;;;2.53;;
52104;SDS011;38103;42.776;23.112;2022-07-10T14:00:55;7.07;;;2.25;;
52104;SDS011;38103;42.776;23.112;2022-07-10T14:03:20;5.60;;;2.10;;
52104;SDS011;38103;42.776;23.112;2022-07-10T14:05:46;6.65;;;2.35;;
52104;SDS011;38103;42.776;23.112;2022-07-10T14:08:12;6.55;;;2.17;;
52104;SDS011;38103;42.776;23.112;2022-07-10T14:10:37;5.95;;;2.20;;
52104;SDS011;38103;42.776;23.112;2022-07-10T14:13:03;7.22;;;2.10;;
52104;SDS011;38103;42.776;23.112;2022-07-10T14:15:30;5.40;;;2.17;;
52104;SDS011;38103;42.776;23.112;2022-07-10T14:17:55;4.93;;;2.15;;
52104;SDS011;38103;42.776;23.112;2022-07-10T14:20:21;8.05;;;2.20;;
52104;SDS011;38103;42.776;23.112;2022-07-10T14:22:46;6.65;;;2.30;;
52104;SDS011;38103;42.776;23.112;2022-07-10T14:25:12;6.32;;;2.05;;
52104;SDS011;38103;42.776;23.112;2022-07-10T14:27:38;6.65;;;2.33;;
52104;SDS011;38103;42.776;23.112;2022-07-10T14:30:04;8.43;;;2.40;;
52104;SDS011;38103;42.776;23.112;2022-07-10T14:32:30;9.23;;;2.58;;
52104;SDS011;38103;42.776;23.112;2022-07-10T14:34:56;6.93;;;2.33;;
52104;SDS011;38103;42.776;23.112;2022-07-10T14:37:21;8.68;;;2.47;;
52104;SDS011;38103;42.776;23.112;2022-07-10T14:39:47;6.38;;;2.20;;
52104;SDS011;38103;42.776;23.112;2022-07-10T14:42:12;7.65;;;2.40;;
52104;SDS011;38103;42.776;23.112;2022-07-10T14:44:38;7.55;;;2.40;;
52104;SDS011;38103;42.776;23.112;2022-07-10T14:47:03;8.07;;;2.70;;
52104;SDS011;38103;42.776;23.112;2022-07-10T14:49:29;5.80;;;2.25;;
52104;SDS011;38103;42.776;23.112;2022-07-10T14:51:54;6.00;;;2.20;;
52104;SDS011;38103;42.776;23.112;2022-07-10T14:54:20;7.40;;;2.38;;
52104;SDS011;38103;42.776;23.112;2022-07-10T14:56:45;6.53;;;2.20;;
52104;SDS011;38103;42.776;23.112;2022-07-10T14:59:11;7.28;;;2.60;;
52104;SDS011;38103;42.776;23.112;2022-07-10T15:01:36;6.93;;;2.30;;
52104;SDS011;38103;42.776;23.112;2022-07-10T15:04:02;6.63;;;2.38;;
52104;SDS011;38103;42.776;23.112;2022-07-10T15:06:27;6.88;;;2.47;;
52104;SDS011;38103;42.776;23.112;2022-07-10T15:08:53;6.85;;;2.42;;
52104;SDS011;38103;42.776;23.112;2022-07-10T15:11:18;6.60;;;2.38;;
52104;SDS011;38103;42.776;23.112;2022-07-10T15:13:48;6.90;;;2.33;;
52104;SDS011;38103;42.776;23.112;2022-07-10T15:16:15;6.57;;;2.30;;